»·PEaware :: EMPIR11 KPDX-KPDX

EMPIR11 :: KPDX-KPDX

FLIGHT INFORMATION

Flight Status: Arrived
Operator: Unknown
More flights by this operator :: More flights under this callsign
Pilot: Anonymous 3903 (3903)
Aircraft: MCDONNELL-DOUGLAS FA-18 HORNET
(F18)
More flights by this aircraft type
Origin: KPDX Portland Intl
United States
Destination: KPDX Portland Intl
United States
More flights between these airports :: More routes between these airports
Route: +CBU
File this flight plan on PilotEdge
Remarks: Multi Apps
Altitude:
(Current/Filed)
13,000ft
Speed:
(Current/Filed)
350kts
Departed: 20-Sep-18 02:58 PM
Arrived: 20-Sep-18 03:35 PM
Distance/Time
Traveled:
0nm/0:37
Distance/Time
To Go:
Arrived

Flight Plot

Page will automatically refresh every two minutes.

Flight plan parsing failed; only flown route is shown


Map Options




Map Legend


Flown Route
Filed Route
Departure Airport
Arrival Airport
Navaid (VOR, NDB)
Fix

Horizontal Profiles

Position Reports

Time Latitude Longitude Heading Altitude Ground
Speed
20-Sep-18 14:41 45.581926 -122.597063 209 26ft 0kts
20-Sep-18 14:42 45.581926 -122.597063 209 26ft 0kts
20-Sep-18 14:43 45.581926 -122.597063 209 26ft 0kts
20-Sep-18 14:44 45.581926 -122.597063 209 26ft 0kts
20-Sep-18 14:45 45.581926 -122.597063 209 26ft 0kts
20-Sep-18 14:46 45.581926 -122.597063 209 26ft 0kts
20-Sep-18 14:47 45.581926 -122.597063 209 26ft 0kts
20-Sep-18 14:48 45.581926 -122.597063 209 26ft 0kts
20-Sep-18 14:49 45.581926 -122.597063 209 26ft 0kts
20-Sep-18 14:50 45.581926 -122.597063 209 26ft 0kts
20-Sep-18 14:51 45.581926 -122.597063 209 26ft 0kts
20-Sep-18 14:52 45.581926 -122.597063 209 26ft 0kts
20-Sep-18 14:53 45.581926 -122.597063 209 26ft 0kts
20-Sep-18 14:54 45.581926 -122.597063 209 26ft 0kts
20-Sep-18 14:55 45.581926 -122.597063 209 26ft 0kts
20-Sep-18 14:56 45.582150 -122.598243 344 26ft 9kts
20-Sep-18 14:57 45.584333 -122.596823 120 26ft 12kts
20-Sep-18 14:58 45.581770 -122.590194 117 26ft 30kts
20-Sep-18 14:59 45.579823 -122.585156 117 26ft 9kts
20-Sep-18 15:00 45.583467 -122.591447 299 47ft 172kts
20-Sep-18 15:01 45.615222 -122.668111 301 3552ft 250kts
20-Sep-18 15:02 45.605900 -122.759440 213 6871ft 285kts
20-Sep-18 15:03 45.532372 -122.803177 179 6975ft 281kts
20-Sep-18 15:04 45.477289 -122.732026 127 6994ft 278kts
20-Sep-18 15:05 45.429904 -122.643623 127 7017ft 283kts
20-Sep-18 15:06 45.389894 -122.568548 127 7007ft 288kts
20-Sep-18 15:07 45.351487 -122.448506 105 7019ft 290kts
20-Sep-18 15:08 45.333005 -122.356340 104 7031ft 291kts
20-Sep-18 15:09 45.322875 -122.246777 57 7006ft 277kts
20-Sep-18 15:10 45.397479 -122.191422 347 6852ft 253kts
20-Sep-18 15:11 45.442590 -122.243411 315 4717ft 252kts
20-Sep-18 15:12 45.490947 -122.310607 316 3040ft 230kts
20-Sep-18 15:13 45.527495 -122.385484 298 2321ft 226kts
20-Sep-18 15:14 45.549576 -122.472327 290 2001ft 197kts
20-Sep-18 15:15 45.566882 -122.536129 292 680ft 175kts
20-Sep-18 15:16 45.584210 -122.615785 277 2494ft 268kts
20-Sep-18 15:17 45.589519 -122.721752 275 9799ft 265kts
20-Sep-18 15:18 45.591498 -122.821819 274 12652ft 258kts
20-Sep-18 15:19 45.619145 -122.933315 320 13141ft 330kts
20-Sep-18 15:20 45.661911 -123.035315 252 13043ft 328kts
20-Sep-18 15:21 45.590183 -123.031099 85 12994ft 346kts
20-Sep-18 15:22 45.595173 -122.893296 91 13044ft 355kts
20-Sep-18 15:23 45.591207 -122.751037 88 13054ft 362kts
20-Sep-18 15:24 45.588350 -122.605970 89 13041ft 369kts
20-Sep-18 15:25 45.586398 -122.467183 89 12065ft 317kts
20-Sep-18 15:26 45.583859 -122.347287 88 9882ft 291kts
20-Sep-18 15:27 45.579909 -122.228606 93 7417ft 307kts
20-Sep-18 15:28 45.524860 -122.160742 198 7020ft 290kts
20-Sep-18 15:29 45.467441 -122.213610 248 5888ft 214kts
20-Sep-18 15:30 45.475064 -122.294042 292 4376ft 225kts
20-Sep-18 15:31 45.510332 -122.379594 300 3016ft 263kts
20-Sep-18 15:32 45.543383 -122.471903 291 1595ft 292kts
20-Sep-18 15:33 45.578806 -122.578678 298 941ft 309kts
20-Sep-18 15:34 45.556199 -122.614899 125 1046ft 166kts
20-Sep-18 15:35 45.551492 -122.565959 17 933ft 143kts
20-Sep-18 15:36 45.582524 -122.589128 299 26ft 123kts
20-Sep-18 15:37 45.585446 -122.599718 117 26ft 21kts

Navigation Log

Ident Type
Flight plan parsing failed, navigation log unavailable